Text Box: All records at near 07:00 local time
Kleivo 1 weather for May 2008
Month no. 18
Obs.
Da.
Temp. Dew Point Precip. Wind
Speed
Wind gusts Cloud cover Press. Humidity Wind dir. Sunny OPT
01.05.2008 11,9   0,0 0,0   1 986,5 64,0 0,0   67,5 %
02.05.2008 6,3   0,0 0,0   1 996,9 90,0 0,0   62,5 %
03.05.2008 7,6   0,0 0,0   1 1007,4 87,0 0,0   65,0 %
04.05.2008 3,8   0,0 0,0   1 1009,5 93,0 0,0   60,0 %
05.05.2008 10,1   0,0 0,0   10 1010,2 61,0 0,0 1 90,0 %
06.05.2008 6,8   0,0 0,0   10 1011,8 85,0 0,0 1 85,0 %
07.05.2008 5,4   0,0 0,0   10 1007,4 93,0 0,0 1 85,0 %
08.05.2008 6,3   0,0 0,0   8 1003,4 93,0 0,0 1 80,0 %
09.05.2008 7,6   0,0 0,0   10 1000,7 93,0 0,0 1 87,5 %
10.05.2008 8,4   0,0 0,0   10 1003,0 93,0 0,0 1 87,5 %
11.05.2008 14,4   0,0 0,0   10 1003,0 61,0 0,0 1 92,5 %
12.05.2008 7,8   0,0 0,0   10 1004,7 91,0 0,0 1 87,5 %
13.05.2008 7,9   0,0 0,0   10 1007,1 93,0 0,0 1 87,5 %
14.05.2008 7,5   9,7 0,0   8 1001,4 93,0 0,0 1 75,0 %
15.05.2008 9,3   0,0 0,0   3 994,9 94,0 0,0 1 70,0 %
16.05.2008 8,7   0,0 0,0   1 987,8 91,0 0,0   65,0 %
17.05.2008 5,4   0,0 0,0   8 987,5 88,0 0,0 1 80,0 %
18.05.2008 5,0   0,0 0,0   8 993,2 92,0 0,0 1 80,0 %
19.05.2008 2,4   0,0 0,0   8 996,3 93,0 0,0 1 75,0 %
20.05.2008 8,1   0,0 0,0   1 999,3 87,0 0,0   65,0 %
21.05.2008 4,9   0,0 0,0   8 1002,7 93,0 0,0 1 77,5 %
22.05.2008 6,4   0,0 0,0   8 1002,0 94,0 0,0 1 80,0 %
23.05.2008 7,8   0,0 0,0   8 1001,4 94,0 0,0 1 82,5 %
24.05.2008 18,9   0,0 0,0   8 1003,4 39,0 0,0 1 92,5 %
25.05.2008 12,7   0,0 0,0   8 1006,8 52,0 0,0 1 87,5 %
26.05.2008 7,2   0,0 0,0   10 1005,8 93,0 0,0 1 85,0 %
27.05.2008 7,9   0,0 0,0   10 1003,7 93,0 0,0 1 87,5 %
28.05.2008 11,9   0,0 0,0   10 1003,0 70,0 0,0 1 90,0 %
29.05.2008 16,5   0,0 0,0   10 998,6 37,0 0,0 1 95,0 %
30.05.2008 14,8   0,0 0,0   10 1000,3 72,0 0,0 1 92,5 %
31.05.2008 25,3   0,0 0,0   10 996,6 43,0 0,0 1 100,0 %
Avrg/Sum 9,2   9,7 0,0   7,4 1001,2 81,1 0,0 25 81,2 %